sensor_id;sensor_type;location;lat;lon;timestamp;P1;durP1;ratioP1;P2;durP2;ratioP2
5587;SDS011;2816;49.778;9.986;2023-08-31T00:01:01;1.60;;;1.50;;
5587;SDS011;2816;49.778;9.986;2023-08-31T00:03:29;2.50;;;1.40;;
5587;SDS011;2816;49.778;9.986;2023-08-31T00:05:56;1.80;;;1.70;;
5587;SDS011;2816;49.778;9.986;2023-08-31T00:08:23;1.90;;;1.80;;
5587;SDS011;2816;49.778;9.986;2023-08-31T00:10:54;2.90;;;1.57;;
5587;SDS011;2816;49.778;9.986;2023-08-31T00:13:22;2.50;;;1.73;;
5587;SDS011;2816;49.778;9.986;2023-08-31T00:15:50;2.43;;;1.27;;
5587;SDS011;2816;49.778;9.986;2023-08-31T00:18:19;1.90;;;1.47;;
5587;SDS011;2816;49.778;9.986;2023-08-31T00:20:46;7.13;;;1.83;;
5587;SDS011;2816;49.778;9.986;2023-08-31T00:23:12;2.20;;;1.67;;
5587;SDS011;2816;49.778;9.986;2023-08-31T00:25:39;1.97;;;1.60;;
5587;SDS011;2816;49.778;9.986;2023-08-31T00:28:08;2.63;;;2.13;;
5587;SDS011;2816;49.778;9.986;2023-08-31T00:30:35;1.63;;;1.47;;
5587;SDS011;2816;49.778;9.986;2023-08-31T00:33:02;4.87;;;1.60;;
5587;SDS011;2816;49.778;9.986;2023-08-31T00:35:30;1.90;;;1.80;;
5587;SDS011;2816;49.778;9.986;2023-08-31T00:37:59;1.80;;;1.70;;
5587;SDS011;2816;49.778;9.986;2023-08-31T00:40:29;2.17;;;1.97;;
5587;SDS011;2816;49.778;9.986;2023-08-31T00:42:58;2.57;;;1.83;;
5587;SDS011;2816;49.778;9.986;2023-08-31T00:45:25;2.00;;;1.50;;
5587;SDS011;2816;49.778;9.986;2023-08-31T00:47:52;2.10;;;1.90;;
5587;SDS011;2816;49.778;9.986;2023-08-31T00:50:19;2.20;;;2.00;;
5587;SDS011;2816;49.778;9.986;2023-08-31T00:52:48;2.73;;;2.03;;
5587;SDS011;2816;49.778;9.986;2023-08-31T00:55:15;1.93;;;1.73;;
5587;SDS011;2816;49.778;9.986;2023-08-31T00:57:43;2.97;;;2.00;;
5587;SDS011;2816;49.778;9.986;2023-08-31T01:00:10;3.27;;;1.70;;
5587;SDS011;2816;49.778;9.986;2023-08-31T01:02:40;1.80;;;1.70;;
5587;SDS011;2816;49.778;9.986;2023-08-31T01:05:18;2.90;;;2.00;;
5587;SDS011;2816;49.778;9.986;2023-08-31T01:07:58;1.70;;;1.60;;
5587;SDS011;2816;49.778;9.986;2023-08-31T01:10:34;2.37;;;1.60;;
5587;SDS011;2816;49.778;9.986;2023-08-31T01:13:11;1.87;;;1.70;;
5587;SDS011;2816;49.778;9.986;2023-08-31T01:15:41;5.53;;;2.10;;
5587;SDS011;2816;49.778;9.986;2023-08-31T01:18:11;2.40;;;2.20;;
5587;SDS011;2816;49.778;9.986;2023-08-31T01:20:44;2.70;;;1.80;;
5587;SDS011;2816;49.778;9.986;2023-08-31T01:23:30;1.90;;;1.80;;
5587;SDS011;2816;49.778;9.986;2023-08-31T01:26:10;2.20;;;1.97;;
5587;SDS011;2816;49.778;9.986;2023-08-31T01:28:38;3.80;;;2.30;;
5587;SDS011;2816;49.778;9.986;2023-08-31T01:31:05;2.33;;;2.13;;
5587;SDS011;2816;49.778;9.986;2023-08-31T01:33:32;4.33;;;2.20;;
5587;SDS011;2816;49.778;9.986;2023-08-31T01:36:01;3.67;;;2.83;;
5587;SDS011;2816;49.778;9.986;2023-08-31T01:38:33;3.10;;;2.60;;
5587;SDS011;2816;49.778;9.986;2023-08-31T01:41:06;3.23;;;2.20;;
5587;SDS011;2816;49.778;9.986;2023-08-31T01:43:35;2.40;;;2.20;;
5587;SDS011;2816;49.778;9.986;2023-08-31T01:46:03;4.73;;;2.33;;
5587;SDS011;2816;49.778;9.986;2023-08-31T01:48:30;3.07;;;2.37;;
5587;SDS011;2816;49.778;9.986;2023-08-31T01:50:58;7.83;;;2.60;;
5587;SDS011;2816;49.778;9.986;2023-08-31T01:53:26;2.27;;;2.10;;
5587;SDS011;2816;49.778;9.986;2023-08-31T01:55:53;4.30;;;2.40;;
5587;SDS011;2816;49.778;9.986;2023-08-31T01:58:21;4.10;;;2.73;;
5587;SDS011;2816;49.778;9.986;2023-08-31T02:07:32;3.93;;;3.00;;
5587;SDS011;2816;49.778;9.986;2023-08-31T02:09:59;3.20;;;2.70;;
5587;SDS011;2816;49.778;9.986;2023-08-31T02:12:26;5.40;;;2.83;;
5587;SDS011;2816;49.778;9.986;2023-08-31T02:14:54;3.57;;;3.07;;
5587;SDS011;2816;49.778;9.986;2023-08-31T02:17:21;3.70;;;2.83;;
5587;SDS011;2816;49.778;9.986;2023-08-31T02:19:48;3.07;;;2.73;;
5587;SDS011;2816;49.778;9.986;2023-08-31T02:22:15;5.60;;;2.80;;
5587;SDS011;2816;49.778;9.986;2023-08-31T02:24:42;3.80;;;3.00;;
5587;SDS011;2816;49.778;9.986;2023-08-31T02:27:09;4.30;;;3.10;;
5587;SDS011;2816;49.778;9.986;2023-08-31T02:29:36;4.67;;;3.00;;
5587;SDS011;2816;49.778;9.986;2023-08-31T02:32:05;4.50;;;2.83;;
5587;SDS011;2816;49.778;9.986;2023-08-31T02:34:32;4.23;;;3.20;;
5587;SDS011;2816;49.778;9.986;2023-08-31T02:36:59;4.17;;;2.80;;
5587;SDS011;2816;49.778;9.986;2023-08-31T02:39:26;4.63;;;3.47;;
5587;SDS011;2816;49.778;9.986;2023-08-31T02:41:53;3.10;;;2.80;;
5587;SDS011;2816;49.778;9.986;2023-08-31T02:44:20;5.57;;;3.50;;
5587;SDS011;2816;49.778;9.986;2023-08-31T02:46:47;3.50;;;3.13;;
5587;SDS011;2816;49.778;9.986;2023-08-31T02:49:15;5.37;;;3.40;;
5587;SDS011;2816;49.778;9.986;2023-08-31T02:51:42;5.57;;;3.30;;
5587;SDS011;2816;49.778;9.986;2023-08-31T02:54:09;6.43;;;3.33;;
5587;SDS011;2816;49.778;9.986;2023-08-31T02:56:36;4.27;;;3.63;;
5587;SDS011;2816;49.778;9.986;2023-08-31T02:59:02;4.23;;;3.80;;
5587;SDS011;2816;49.778;9.986;2023-08-31T03:01:29;3.70;;;3.40;;
5587;SDS011;2816;49.778;9.986;2023-08-31T03:03:56;4.53;;;3.67;;
5587;SDS011;2816;49.778;9.986;2023-08-31T03:06:25;5.00;;;3.90;;
5587;SDS011;2816;49.778;9.986;2023-08-31T03:08:52;6.90;;;4.20;;
5587;SDS011;2816;49.778;9.986;2023-08-31T03:11:18;4.80;;;3.70;;
5587;SDS011;2816;49.778;9.986;2023-08-31T03:13:45;5.70;;;4.30;;
5587;SDS011;2816;49.778;9.986;2023-08-31T03:16:12;6.07;;;3.43;;
5587;SDS011;2816;49.778;9.986;2023-08-31T03:18:40;5.20;;;3.30;;
5587;SDS011;2816;49.778;9.986;2023-08-31T03:21:07;6.23;;;3.40;;
5587;SDS011;2816;49.778;9.986;2023-08-31T03:23:35;4.63;;;3.40;;
5587;SDS011;2816;49.778;9.986;2023-08-31T03:26:06;4.20;;;3.40;;
5587;SDS011;2816;49.778;9.986;2023-08-31T03:28:33;5.50;;;3.10;;
5587;SDS011;2816;49.778;9.986;2023-08-31T03:31:00;4.50;;;2.60;;
5587;SDS011;2816;49.778;9.986;2023-08-31T03:33:27;2.93;;;2.53;;
5587;SDS011;2816;49.778;9.986;2023-08-31T03:35:59;2.83;;;2.40;;
5587;SDS011;2816;49.778;9.986;2023-08-31T03:38:26;5.70;;;2.77;;
5587;SDS011;2816;49.778;9.986;2023-08-31T03:40:55;2.80;;;2.60;;
5587;SDS011;2816;49.778;9.986;2023-08-31T03:43:22;4.20;;;3.10;;
5587;SDS011;2816;49.778;9.986;2023-08-31T03:45:53;4.57;;;2.80;;
5587;SDS011;2816;49.778;9.986;2023-08-31T03:48:20;4.10;;;3.63;;
5587;SDS011;2816;49.778;9.986;2023-08-31T03:50:48;4.33;;;3.20;;
5587;SDS011;2816;49.778;9.986;2023-08-31T03:53:15;8.43;;;3.00;;
5587;SDS011;2816;49.778;9.986;2023-08-31T03:55:42;10.13;;;3.30;;
5587;SDS011;2816;49.778;9.986;2023-08-31T03:58:11;4.93;;;2.90;;
5587;SDS011;2816;49.778;9.986;2023-08-31T04:00:38;6.60;;;3.60;;
5587;SDS011;2816;49.778;9.986;2023-08-31T04:03:05;6.70;;;3.10;;
5587;SDS011;2816;49.778;9.986;2023-08-31T04:05:33;3.50;;;2.73;;
5587;SDS011;2816;49.778;9.986;2023-08-31T04:08:01;3.73;;;3.30;;
5587;SDS011;2816;49.778;9.986;2023-08-31T04:10:28;5.37;;;2.90;;
5587;SDS011;2816;49.778;9.986;2023-08-31T04:12:56;5.90;;;2.87;;
5587;SDS011;2816;49.778;9.986;2023-08-31T04:15:25;5.13;;;3.30;;
5587;SDS011;2816;49.778;9.986;2023-08-31T04:17:52;4.30;;;3.00;;
5587;SDS011;2816;49.778;9.986;2023-08-31T04:20:19;2.90;;;2.60;;
5587;SDS011;2816;49.778;9.986;2023-08-31T04:22:45;4.67;;;2.80;;
5587;SDS011;2816;49.778;9.986;2023-08-31T04:25:12;4.87;;;2.90;;
5587;SDS011;2816;49.778;9.986;2023-08-31T04:27:39;6.30;;;3.30;;
5587;SDS011;2816;49.778;9.986;2023-08-31T04:30:06;3.40;;;2.77;;
5587;SDS011;2816;49.778;9.986;2023-08-31T04:32:35;4.97;;;3.37;;
5587;SDS011;2816;49.778;9.986;2023-08-31T04:35:02;4.03;;;3.60;;
5587;SDS011;2816;49.778;9.986;2023-08-31T04:37:31;3.90;;;3.50;;
5587;SDS011;2816;49.778;9.986;2023-08-31T04:39:58;2.77;;;2.57;;
5587;SDS011;2816;49.778;9.986;2023-08-31T04:42:25;4.27;;;3.13;;
5587;SDS011;2816;49.778;9.986;2023-08-31T04:44:53;4.70;;;3.20;;
5587;SDS011;2816;49.778;9.986;2023-08-31T04:47:19;5.30;;;3.80;;
5587;SDS011;2816;49.778;9.986;2023-08-31T04:49:48;7.13;;;3.50;;
5587;SDS011;2816;49.778;9.986;2023-08-31T04:52:14;5.90;;;3.70;;
5587;SDS011;2816;49.778;9.986;2023-08-31T04:54:42;4.40;;;3.63;;
5587;SDS011;2816;49.778;9.986;2023-08-31T04:57:08;4.07;;;3.67;;
5587;SDS011;2816;49.778;9.986;2023-08-31T04:59:36;4.70;;;3.40;;
5587;SDS011;2816;49.778;9.986;2023-08-31T05:02:03;4.73;;;4.23;;
5587;SDS011;2816;49.778;9.986;2023-08-31T05:04:30;9.00;;;3.20;;
5587;SDS011;2816;49.778;9.986;2023-08-31T05:06:58;6.93;;;3.20;;
5587;SDS011;2816;49.778;9.986;2023-08-31T05:09:25;7.53;;;3.70;;
5587;SDS011;2816;49.778;9.986;2023-08-31T05:11:52;6.90;;;3.57;;
5587;SDS011;2816;49.778;9.986;2023-08-31T05:14:19;3.97;;;3.57;;
5587;SDS011;2816;49.778;9.986;2023-08-31T05:16:46;4.13;;;3.70;;
5587;SDS011;2816;49.778;9.986;2023-08-31T05:19:13;4.57;;;3.00;;
5587;SDS011;2816;49.778;9.986;2023-08-31T05:21:40;5.67;;;4.37;;
5587;SDS011;2816;49.778;9.986;2023-08-31T05:24:08;5.37;;;4.00;;
5587;SDS011;2816;49.778;9.986;2023-08-31T05:26:35;4.10;;;3.67;;
5587;SDS011;2816;49.778;9.986;2023-08-31T05:29:02;10.57;;;3.80;;
5587;SDS011;2816;49.778;9.986;2023-08-31T05:31:30;7.27;;;4.50;;
5587;SDS011;2816;49.778;9.986;2023-08-31T05:33:57;4.53;;;3.10;;
5587;SDS011;2816;49.778;9.986;2023-08-31T05:36:24;4.07;;;3.10;;
5587;SDS011;2816;49.778;9.986;2023-08-31T05:38:51;9.90;;;4.60;;
5587;SDS011;2816;49.778;9.986;2023-08-31T05:41:19;6.57;;;4.37;;
5587;SDS011;2816;49.778;9.986;2023-08-31T05:43:47;4.60;;;3.60;;
5587;SDS011;2816;49.778;9.986;2023-08-31T05:46:13;8.53;;;4.40;;
5587;SDS011;2816;49.778;9.986;2023-08-31T05:48:40;4.90;;;4.10;;
5587;SDS011;2816;49.778;9.986;2023-08-31T05:51:07;5.10;;;3.93;;
5587;SDS011;2816;49.778;9.986;2023-08-31T05:53:34;8.03;;;4.77;;
5587;SDS011;2816;49.778;9.986;2023-08-31T05:56:02;13.13;;;5.57;;
5587;SDS011;2816;49.778;9.986;2023-08-31T05:58:32;5.70;;;4.17;;
5587;SDS011;2816;49.778;9.986;2023-08-31T06:00:59;13.23;;;5.60;;
5587;SDS011;2816;49.778;9.986;2023-08-31T06:03:26;5.80;;;4.20;;
5587;SDS011;2816;49.778;9.986;2023-08-31T06:05:54;9.63;;;5.27;;
5587;SDS011;2816;49.778;9.986;2023-08-31T06:08:21;11.60;;;5.03;;
5587;SDS011;2816;49.778;9.986;2023-08-31T06:10:48;8.27;;;4.90;;
5587;SDS011;2816;49.778;9.986;2023-08-31T06:13:15;5.37;;;4.87;;
5587;SDS011;2816;49.778;9.986;2023-08-31T06:15:44;5.20;;;4.30;;
5587;SDS011;2816;49.778;9.986;2023-08-31T06:18:11;6.17;;;5.50;;
5587;SDS011;2816;49.778;9.986;2023-08-31T06:20:38;9.87;;;5.97;;
5587;SDS011;2816;49.778;9.986;2023-08-31T06:23:05;6.87;;;5.27;;
5587;SDS011;2816;49.778;9.986;2023-08-31T06:25:32;6.53;;;4.47;;
5587;SDS011;2816;49.778;9.986;2023-08-31T06:27:59;11.47;;;5.60;;
5587;SDS011;2816;49.778;9.986;2023-08-31T06:30:26;5.10;;;3.93;;
5587;SDS011;2816;49.778;9.986;2023-08-31T06:32:54;5.40;;;4.60;;
5587;SDS011;2816;49.778;9.986;2023-08-31T06:35:22;7.50;;;4.10;;
5587;SDS011;2816;49.778;9.986;2023-08-31T06:37:49;9.90;;;5.60;;
5587;SDS011;2816;49.778;9.986;2023-08-31T06:40:16;5.13;;;4.00;;
5587;SDS011;2816;49.778;9.986;2023-08-31T06:42:43;9.37;;;4.37;;
5587;SDS011;2816;49.778;9.986;2023-08-31T06:45:10;5.97;;;3.87;;
5587;SDS011;2816;49.778;9.986;2023-08-31T06:47:37;7.40;;;4.77;;
5587;SDS011;2816;49.778;9.986;2023-08-31T06:50:05;7.10;;;3.57;;
5587;SDS011;2816;49.778;9.986;2023-08-31T06:52:33;5.20;;;3.90;;
5587;SDS011;2816;49.778;9.986;2023-08-31T06:55:00;5.03;;;4.13;;
5587;SDS011;2816;49.778;9.986;2023-08-31T06:57:28;7.07;;;4.00;;
5587;SDS011;2816;49.778;9.986;2023-08-31T06:59:54;5.60;;;4.20;;
5587;SDS011;2816;49.778;9.986;2023-08-31T07:02:21;3.60;;;3.30;;
5587;SDS011;2816;49.778;9.986;2023-08-31T07:04:49;6.27;;;3.77;;
5587;SDS011;2816;49.778;9.986;2023-08-31T07:07:18;5.23;;;3.33;;
5587;SDS011;2816;49.778;9.986;2023-08-31T07:09:46;5.03;;;3.33;;
5587;SDS011;2816;49.778;9.986;2023-08-31T07:12:13;7.33;;;3.47;;
5587;SDS011;2816;49.778;9.986;2023-08-31T07:14:41;3.50;;;3.20;;
5587;SDS011;2816;49.778;9.986;2023-08-31T07:17:08;6.23;;;2.80;;
5587;SDS011;2816;49.778;9.986;2023-08-31T07:19:36;3.87;;;2.80;;
5587;SDS011;2816;49.778;9.986;2023-08-31T07:22:03;4.70;;;3.50;;
5587;SDS011;2816;49.778;9.986;2023-08-31T07:24:32;2.90;;;2.60;;
5587;SDS011;2816;49.778;9.986;2023-08-31T07:27:01;5.13;;;3.03;;
5587;SDS011;2816;49.778;9.986;2023-08-31T07:29:28;6.60;;;3.20;;
5587;SDS011;2816;49.778;9.986;2023-08-31T07:31:55;11.30;;;2.40;;
5587;SDS011;2816;49.778;9.986;2023-08-31T07:34:23;7.50;;;2.87;;
5587;SDS011;2816;49.778;9.986;2023-08-31T07:36:50;3.90;;;2.40;;
5587;SDS011;2816;49.778;9.986;2023-08-31T07:39:17;7.07;;;2.83;;
5587;SDS011;2816;49.778;9.986;2023-08-31T07:41:45;7.93;;;2.70;;
5587;SDS011;2816;49.778;9.986;2023-08-31T07:44:12;3.57;;;2.50;;
5587;SDS011;2816;49.778;9.986;2023-08-31T07:46:39;4.70;;;2.90;;
5587;SDS011;2816;49.778;9.986;2023-08-31T07:49:06;3.70;;;2.17;;
5587;SDS011;2816;49.778;9.986;2023-08-31T07:51:33;4.20;;;2.60;;
5587;SDS011;2816;49.778;9.986;2023-08-31T07:54:00;3.17;;;2.43;;
5587;SDS011;2816;49.778;9.986;2023-08-31T07:56:28;6.47;;;2.40;;
5587;SDS011;2816;49.778;9.986;2023-08-31T07:58:56;5.40;;;2.23;;
5587;SDS011;2816;49.778;9.986;2023-08-31T08:01:23;4.03;;;2.30;;
5587;SDS011;2816;49.778;9.986;2023-08-31T08:03:50;2.43;;;2.23;;
5587;SDS011;2816;49.778;9.986;2023-08-31T08:06:17;6.77;;;2.33;;
5587;SDS011;2816;49.778;9.986;2023-08-31T08:08:44;4.70;;;2.70;;
5587;SDS011;2816;49.778;9.986;2023-08-31T08:11:11;2.37;;;2.17;;
5587;SDS011;2816;49.778;9.986;2023-08-31T08:13:38;4.90;;;2.17;;
5587;SDS011;2816;49.778;9.986;2023-08-31T08:16:06;3.10;;;2.20;;
5587;SDS011;2816;49.778;9.986;2023-08-31T08:18:34;3.30;;;1.83;;
5587;SDS011;2816;49.778;9.986;2023-08-31T08:21:01;2.97;;;2.17;;
5587;SDS011;2816;49.778;9.986;2023-08-31T08:23:28;2.20;;;1.90;;
5587;SDS011;2816;49.778;9.986;2023-08-31T08:25:55;4.50;;;1.90;;
5587;SDS011;2816;49.778;9.986;2023-08-31T08:28:24;2.03;;;1.80;;
5587;SDS011;2816;49.778;9.986;2023-08-31T08:30:51;1.93;;;1.70;;
5587;SDS011;2816;49.778;9.986;2023-08-31T08:33:19;3.17;;;2.20;;
5587;SDS011;2816;49.778;9.986;2023-08-31T08:35:46;7.43;;;1.70;;
5587;SDS011;2816;49.778;9.986;2023-08-31T08:38:13;2.37;;;1.70;;
5587;SDS011;2816;49.778;9.986;2023-08-31T08:40:40;3.43;;;1.80;;
5587;SDS011;2816;49.778;9.986;2023-08-31T08:43:07;5.63;;;2.10;;
5587;SDS011;2816;49.778;9.986;2023-08-31T08:45:35;4.27;;;2.03;;
5587;SDS011;2816;49.778;9.986;2023-08-31T08:48:04;3.97;;;2.10;;
5587;SDS011;2816;49.778;9.986;2023-08-31T08:50:34;3.93;;;1.83;;
5587;SDS011;2816;49.778;9.986;2023-08-31T08:53:02;3.73;;;2.33;;
5587;SDS011;2816;49.778;9.986;2023-08-31T08:55:30;3.50;;;2.13;;
5587;SDS011;2816;49.778;9.986;2023-08-31T08:57:57;9.73;;;2.17;;
5587;SDS011;2816;49.778;9.986;2023-08-31T09:00:25;3.03;;;1.77;;
5587;SDS011;2816;49.778;9.986;2023-08-31T09:02:53;3.63;;;1.90;;
5587;SDS011;2816;49.778;9.986;2023-08-31T09:05:20;2.50;;;2.13;;
5587;SDS011;2816;49.778;9.986;2023-08-31T09:08:04;4.00;;;2.00;;
5587;SDS011;2816;49.778;9.986;2023-08-31T09:10:35;9.23;;;2.00;;
5587;SDS011;2816;49.778;9.986;2023-08-31T09:13:04;5.80;;;2.40;;
5587;SDS011;2816;49.778;9.986;2023-08-31T09:15:36;3.63;;;2.10;;
5587;SDS011;2816;49.778;9.986;2023-08-31T09:18:06;2.90;;;1.87;;
5587;SDS011;2816;49.778;9.986;2023-08-31T09:20:42;4.03;;;1.93;;
5587;SDS011;2816;49.778;9.986;2023-08-31T09:23:12;2.00;;;1.80;;
5587;SDS011;2816;49.778;9.986;2023-08-31T09:25:42;6.20;;;2.13;;
5587;SDS011;2816;49.778;9.986;2023-08-31T09:28:10;5.27;;;2.30;;
5587;SDS011;2816;49.778;9.986;2023-08-31T09:30:38;6.37;;;2.63;;
5587;SDS011;2816;49.778;9.986;2023-08-31T09:33:06;8.13;;;2.53;;
5587;SDS011;2816;49.778;9.986;2023-08-31T09:35:38;3.93;;;2.23;;
5587;SDS011;2816;49.778;9.986;2023-08-31T09:38:09;5.93;;;2.10;;
5587;SDS011;2816;49.778;9.986;2023-08-31T09:40:38;9.10;;;2.30;;
5587;SDS011;2816;49.778;9.986;2023-08-31T09:43:05;4.83;;;1.70;;
5587;SDS011;2816;49.778;9.986;2023-08-31T09:45:32;7.63;;;2.93;;
5587;SDS011;2816;49.778;9.986;2023-08-31T09:48:01;4.47;;;2.03;;
5587;SDS011;2816;49.778;9.986;2023-08-31T09:50:29;2.90;;;2.03;;
5587;SDS011;2816;49.778;9.986;2023-08-31T09:52:58;3.70;;;2.07;;
5587;SDS011;2816;49.778;9.986;2023-08-31T09:55:30;5.00;;;1.80;;
5587;SDS011;2816;49.778;9.986;2023-08-31T09:57:59;3.97;;;1.53;;
5587;SDS011;2816;49.778;9.986;2023-08-31T10:00:27;4.57;;;2.20;;
5587;SDS011;2816;49.778;9.986;2023-08-31T10:02:56;3.30;;;1.93;;
5587;SDS011;2816;49.778;9.986;2023-08-31T10:05:26;8.27;;;2.10;;
5587;SDS011;2816;49.778;9.986;2023-08-31T10:07:54;6.37;;;1.90;;
5587;SDS011;2816;49.778;9.986;2023-08-31T10:10:21;4.00;;;1.87;;
5587;SDS011;2816;49.778;9.986;2023-08-31T10:12:50;4.80;;;1.53;;
5587;SDS011;2816;49.778;9.986;2023-08-31T10:15:18;5.57;;;1.97;;
5587;SDS011;2816;49.778;9.986;2023-08-31T10:17:45;4.23;;;2.30;;
5587;SDS011;2816;49.778;9.986;2023-08-31T10:20:14;4.37;;;2.43;;
5587;SDS011;2816;49.778;9.986;2023-08-31T10:22:42;5.00;;;2.17;;
5587;SDS011;2816;49.778;9.986;2023-08-31T10:25:10;2.50;;;1.83;;
5587;SDS011;2816;49.778;9.986;2023-08-31T10:27:39;7.27;;;1.90;;
5587;SDS011;2816;49.778;9.986;2023-08-31T10:30:19;6.40;;;2.00;;
5587;SDS011;2816;49.778;9.986;2023-08-31T10:35:48;1.73;;;1.57;;
5587;SDS011;2816;49.778;9.986;2023-08-31T10:38:16;1.90;;;1.70;;
5587;SDS011;2816;49.778;9.986;2023-08-31T10:41:03;3.77;;;1.70;;
5587;SDS011;2816;49.778;9.986;2023-08-31T10:43:47;2.93;;;1.80;;
5587;SDS011;2816;49.778;9.986;2023-08-31T10:46:18;3.43;;;1.83;;
5587;SDS011;2816;49.778;9.986;2023-08-31T10:48:53;3.60;;;1.60;;
5587;SDS011;2816;49.778;9.986;2023-08-31T10:51:24;2.30;;;2.00;;
5587;SDS011;2816;49.778;9.986;2023-08-31T10:53:52;2.60;;;1.73;;
5587;SDS011;2816;49.778;9.986;2023-08-31T10:56:30;1.97;;;1.60;;
5587;SDS011;2816;49.778;9.986;2023-08-31T10:58:57;5.07;;;1.90;;
5587;SDS011;2816;49.778;9.986;2023-08-31T11:04:19;4.60;;;1.40;;
5587;SDS011;2816;49.778;9.986;2023-08-31T11:06:46;3.53;;;1.93;;
5587;SDS011;2816;49.778;9.986;2023-08-31T11:09:17;2.20;;;1.67;;
5587;SDS011;2816;49.778;9.986;2023-08-31T11:11:45;3.17;;;1.80;;
5587;SDS011;2816;49.778;9.986;2023-08-31T11:14:12;2.27;;;1.80;;
5587;SDS011;2816;49.778;9.986;2023-08-31T11:16:40;4.60;;;1.97;;
5587;SDS011;2816;49.778;9.986;2023-08-31T11:19:09;1.97;;;1.60;;
5587;SDS011;2816;49.778;9.986;2023-08-31T11:21:36;3.83;;;1.67;;
5587;SDS011;2816;49.778;9.986;2023-08-31T11:24:04;2.70;;;1.80;;
5587;SDS011;2816;49.778;9.986;2023-08-31T11:26:31;4.57;;;1.93;;
5587;SDS011;2816;49.778;9.986;2023-08-31T11:28:59;2.37;;;1.60;;
5587;SDS011;2816;49.778;9.986;2023-08-31T11:31:26;3.50;;;1.80;;
5587;SDS011;2816;49.778;9.986;2023-08-31T11:33:53;3.07;;;2.00;;
5587;SDS011;2816;49.778;9.986;2023-08-31T11:36:22;3.80;;;2.00;;
5587;SDS011;2816;49.778;9.986;2023-08-31T11:38:51;2.90;;;1.70;;
5587;SDS011;2816;49.778;9.986;2023-08-31T11:41:19;4.53;;;2.00;;
5587;SDS011;2816;49.778;9.986;2023-08-31T11:43:46;6.43;;;2.13;;
5587;SDS011;2816;49.778;9.986;2023-08-31T11:46:14;3.30;;;1.93;;
5587;SDS011;2816;49.778;9.986;2023-08-31T11:48:42;2.20;;;1.80;;
5587;SDS011;2816;49.778;9.986;2023-08-31T11:51:09;3.67;;;1.80;;
5587;SDS011;2816;49.778;9.986;2023-08-31T11:53:39;2.00;;;1.80;;
5587;SDS011;2816;49.778;9.986;2023-08-31T11:56:06;10.67;;;1.77;;
5587;SDS011;2816;49.778;9.986;2023-08-31T11:58:33;2.40;;;2.00;;
5587;SDS011;2816;49.778;9.986;2023-08-31T12:01:07;2.87;;;1.80;;
5587;SDS011;2816;49.778;9.986;2023-08-31T12:03:41;3.10;;;1.97;;
5587;SDS011;2816;49.778;9.986;2023-08-31T12:06:09;3.03;;;1.90;;
5587;SDS011;2816;49.778;9.986;2023-08-31T12:08:36;3.13;;;1.60;;
5587;SDS011;2816;49.778;9.986;2023-08-31T12:11:06;5.00;;;1.90;;
5587;SDS011;2816;49.778;9.986;2023-08-31T12:13:33;2.93;;;2.00;;
5587;SDS011;2816;49.778;9.986;2023-08-31T12:15:59;2.27;;;1.80;;
5587;SDS011;2816;49.778;9.986;2023-08-31T12:18:29;3.83;;;2.00;;
5587;SDS011;2816;49.778;9.986;2023-08-31T12:20:56;2.70;;;1.70;;
5587;SDS011;2816;49.778;9.986;2023-08-31T12:23:24;3.87;;;1.63;;
5587;SDS011;2816;49.778;9.986;2023-08-31T12:25:54;4.90;;;2.00;;
5587;SDS011;2816;49.778;9.986;2023-08-31T12:28:21;5.20;;;1.83;;
5587;SDS011;2816;49.778;9.986;2023-08-31T12:30:49;4.53;;;1.90;;
5587;SDS011;2816;49.778;9.986;2023-08-31T12:33:17;5.47;;;1.80;;
5587;SDS011;2816;49.778;9.986;2023-08-31T12:35:44;3.67;;;1.97;;
5587;SDS011;2816;49.778;9.986;2023-08-31T12:38:11;1.70;;;1.60;;
5587;SDS011;2816;49.778;9.986;2023-08-31T12:40:39;2.90;;;1.63;;
5587;SDS011;2816;49.778;9.986;2023-08-31T12:43:07;2.13;;;1.80;;
5587;SDS011;2816;49.778;9.986;2023-08-31T12:45:34;1.83;;;1.60;;
5587;SDS011;2816;49.778;9.986;2023-08-31T12:48:02;3.10;;;1.60;;
5587;SDS011;2816;49.778;9.986;2023-08-31T12:50:30;4.50;;;2.10;;
5587;SDS011;2816;49.778;9.986;2023-08-31T12:52:56;5.97;;;1.80;;
5587;SDS011;2816;49.778;9.986;2023-08-31T12:55:23;2.93;;;1.77;;
5587;SDS011;2816;49.778;9.986;2023-08-31T12:57:50;2.30;;;1.43;;
5587;SDS011;2816;49.778;9.986;2023-08-31T13:00:19;4.30;;;1.70;;
5587;SDS011;2816;49.778;9.986;2023-08-31T13:02:46;3.90;;;1.63;;
5587;SDS011;2816;49.778;9.986;2023-08-31T13:05:15;6.43;;;1.90;;
5587;SDS011;2816;49.778;9.986;2023-08-31T13:07:42;2.77;;;1.60;;
5587;SDS011;2816;49.778;9.986;2023-08-31T13:10:09;2.93;;;1.50;;
5587;SDS011;2816;49.778;9.986;2023-08-31T13:12:36;3.30;;;1.80;;
5587;SDS011;2816;49.778;9.986;2023-08-31T13:15:03;3.20;;;1.97;;
5587;SDS011;2816;49.778;9.986;2023-08-31T13:17:34;3.27;;;2.30;;
5587;SDS011;2816;49.778;9.986;2023-08-31T13:20:01;3.90;;;1.70;;
5587;SDS011;2816;49.778;9.986;2023-08-31T13:22:29;2.63;;;1.70;;
5587;SDS011;2816;49.778;9.986;2023-08-31T13:24:57;6.03;;;1.80;;
5587;SDS011;2816;49.778;9.986;2023-08-31T13:27:24;5.30;;;1.80;;
5587;SDS011;2816;49.778;9.986;2023-08-31T13:29:51;2.60;;;1.57;;
5587;SDS011;2816;49.778;9.986;2023-08-31T13:32:18;2.30;;;1.60;;
5587;SDS011;2816;49.778;9.986;2023-08-31T13:34:46;3.27;;;1.80;;
5587;SDS011;2816;49.778;9.986;2023-08-31T13:37:13;2.90;;;1.43;;
5587;SDS011;2816;49.778;9.986;2023-08-31T13:39:40;3.97;;;2.17;;
5587;SDS011;2816;49.778;9.986;2023-08-31T13:42:07;4.53;;;1.77;;
5587;SDS011;2816;49.778;9.986;2023-08-31T13:44:33;1.47;;;1.30;;
5587;SDS011;2816;49.778;9.986;2023-08-31T13:47:01;3.50;;;1.70;;
5587;SDS011;2816;49.778;9.986;2023-08-31T13:49:30;3.20;;;1.80;;
5587;SDS011;2816;49.778;9.986;2023-08-31T13:51:58;2.77;;;1.60;;
5587;SDS011;2816;49.778;9.986;2023-08-31T13:54:25;4.50;;;2.10;;
5587;SDS011;2816;49.778;9.986;2023-08-31T13:56:52;2.10;;;1.60;;
5587;SDS011;2816;49.778;9.986;2023-08-31T13:59:19;4.70;;;1.70;;
5587;SDS011;2816;49.778;9.986;2023-08-31T14:01:46;2.93;;;2.13;;
5587;SDS011;2816;49.778;9.986;2023-08-31T14:04:13;8.73;;;2.07;;
5587;SDS011;2816;49.778;9.986;2023-08-31T14:06:40;4.37;;;2.60;;
5587;SDS011;2816;49.778;9.986;2023-08-31T14:09:08;3.03;;;1.90;;
5587;SDS011;2816;49.778;9.986;2023-08-31T14:11:35;1.87;;;1.70;;
5587;SDS011;2816;49.778;9.986;2023-08-31T14:14:02;3.77;;;1.87;;
5587;SDS011;2816;49.778;9.986;2023-08-31T14:16:31;3.50;;;2.00;;
5587;SDS011;2816;49.778;9.986;2023-08-31T14:18:58;3.63;;;2.17;;
5587;SDS011;2816;49.778;9.986;2023-08-31T14:21:25;2.80;;;1.83;;
5587;SDS011;2816;49.778;9.986;2023-08-31T14:23:52;4.70;;;2.17;;
5587;SDS011;2816;49.778;9.986;2023-08-31T14:26:22;7.37;;;1.83;;
5587;SDS011;2816;49.778;9.986;2023-08-31T14:28:49;2.33;;;1.73;;
5587;SDS011;2816;49.778;9.986;2023-08-31T14:31:16;3.33;;;1.70;;
5587;SDS011;2816;49.778;9.986;2023-08-31T14:33:43;5.10;;;1.90;;
5587;SDS011;2816;49.778;9.986;2023-08-31T14:36:11;4.60;;;2.33;;
5587;SDS011;2816;49.778;9.986;2023-08-31T14:38:41;6.30;;;1.97;;
5587;SDS011;2816;49.778;9.986;2023-08-31T14:41:08;3.40;;;2.03;;
5587;SDS011;2816;49.778;9.986;2023-08-31T14:43:37;4.30;;;2.10;;
5587;SDS011;2816;49.778;9.986;2023-08-31T14:46:03;6.50;;;1.87;;
5587;SDS011;2816;49.778;9.986;2023-08-31T14:48:30;7.93;;;2.10;;
5587;SDS011;2816;49.778;9.986;2023-08-31T14:50:58;3.73;;;1.80;;
5587;SDS011;2816;49.778;9.986;2023-08-31T14:53:25;11.13;;;2.37;;
5587;SDS011;2816;49.778;9.986;2023-08-31T14:55:53;3.90;;;2.13;;
5587;SDS011;2816;49.778;9.986;2023-08-31T14:58:20;5.73;;;2.00;;
5587;SDS011;2816;49.778;9.986;2023-08-31T15:00:48;4.10;;;1.97;;
5587;SDS011;2816;49.778;9.986;2023-08-31T15:03:16;5.00;;;2.03;;
5587;SDS011;2816;49.778;9.986;2023-08-31T15:05:42;5.50;;;2.00;;
5587;SDS011;2816;49.778;9.986;2023-08-31T15:08:09;2.47;;;2.00;;
5587;SDS011;2816;49.778;9.986;2023-08-31T15:10:37;4.30;;;2.03;;
5587;SDS011;2816;49.778;9.986;2023-08-31T15:13:05;6.77;;;2.17;;
5587;SDS011;2816;49.778;9.986;2023-08-31T15:15:31;3.50;;;1.60;;
5587;SDS011;2816;49.778;9.986;2023-08-31T15:18:01;3.73;;;1.90;;
5587;SDS011;2816;49.778;9.986;2023-08-31T15:20:29;5.33;;;2.17;;
5587;SDS011;2816;49.778;9.986;2023-08-31T15:22:56;4.47;;;2.10;;
5587;SDS011;2816;49.778;9.986;2023-08-31T15:25:23;3.50;;;2.50;;
5587;SDS011;2816;49.778;9.986;2023-08-31T15:27:50;21.00;;;2.70;;
5587;SDS011;2816;49.778;9.986;2023-08-31T15:30:17;5.00;;;2.00;;
5587;SDS011;2816;49.778;9.986;2023-08-31T15:32:44;6.50;;;2.60;;